createdAt,value
2018-12-21T00:00:16.692Z,0.00
2018-12-21T00:01:16.662Z,0.00
2018-12-21T00:02:16.628Z,0.00
2018-12-21T00:03:16.597Z,0.00
2018-12-21T00:04:16.568Z,0.00
2018-12-21T00:05:16.541Z,0.00
2018-12-21T00:06:16.508Z,0.00
2018-12-21T00:07:16.477Z,0.00
2018-12-21T00:08:16.440Z,0.00
2018-12-21T00:09:16.409Z,0.00
2018-12-21T00:10:16.383Z,0.00
2018-12-21T00:11:16.379Z,0.00
2018-12-21T00:12:16.319Z,0.00
2018-12-21T00:13:16.287Z,0.00
2018-12-21T00:14:16.256Z,0.00
2018-12-21T00:15:16.228Z,0.00
2018-12-21T00:16:16.194Z,0.00
2018-12-21T00:17:16.166Z,0.00
2018-12-21T00:18:16.134Z,0.00
2018-12-21T00:19:16.100Z,0.00
2018-12-21T00:20:16.073Z,0.00
2018-12-21T00:21:21.763Z,0.00
2018-12-21T00:22:16.009Z,0.00
2018-12-21T00:23:15.977Z,0.00
2018-12-21T00:24:15.946Z,0.00
2018-12-21T00:25:15.914Z,0.00
2018-12-21T00:26:15.885Z,0.00
2018-12-21T00:27:15.853Z,0.00
2018-12-21T00:28:15.823Z,0.00
2018-12-21T00:29:15.795Z,0.00
2018-12-21T00:30:15.760Z,0.00
2018-12-21T00:31:17.851Z,0.00
2018-12-21T00:32:15.698Z,0.00
2018-12-21T00:33:15.673Z,0.00
2018-12-21T00:34:15.638Z,0.00
2018-12-21T00:35:15.606Z,0.00
2018-12-21T00:36:15.576Z,0.00
2018-12-21T00:37:15.548Z,0.00
2018-12-21T00:38:15.513Z,0.00
2018-12-21T00:39:15.483Z,0.00
2018-12-21T00:40:15.455Z,0.00
2018-12-21T00:41:15.421Z,0.00
2018-12-21T00:42:15.391Z,0.00
2018-12-21T00:43:15.375Z,0.00
2018-12-21T00:44:15.332Z,0.00
2018-12-21T00:45:15.299Z,0.00
2018-12-21T00:46:15.267Z,0.00
2018-12-21T00:47:15.241Z,0.00
2018-12-21T00:48:15.208Z,0.00
2018-12-21T00:49:15.179Z,0.00
2018-12-21T00:50:15.145Z,0.00
2018-12-21T00:51:15.111Z,0.00
2018-12-21T00:52:15.083Z,0.00
2018-12-21T00:53:15.051Z,0.00
2018-12-21T00:54:15.021Z,0.00
2018-12-21T00:55:14.992Z,0.00
2018-12-21T00:56:14.958Z,0.00
2018-12-21T00:57:14.928Z,0.00
2018-12-21T00:58:14.898Z,0.00
2018-12-21T00:59:14.866Z,0.00
2018-12-21T01:00:14.836Z,0.00
2018-12-21T01:01:14.806Z,0.00
2018-12-21T01:02:14.774Z,0.00
2018-12-21T01:03:14.751Z,0.00
2018-12-21T01:04:14.712Z,0.00
2018-12-21T01:05:14.684Z,0.00
2018-12-21T01:06:14.654Z,0.00
2018-12-21T01:07:14.619Z,0.00
2018-12-21T01:08:14.590Z,0.00
2018-12-21T01:09:14.563Z,0.00
2018-12-21T01:10:14.531Z,0.00
2018-12-21T01:11:14.563Z,0.00
2018-12-21T01:12:14.466Z,0.00
2018-12-21T01:13:14.436Z,0.00
2018-12-21T01:14:14.407Z,0.00
2018-12-21T01:15:14.375Z,0.00
2018-12-21T01:16:14.346Z,0.00
2018-12-21T01:17:14.316Z,0.00
2018-12-21T01:18:14.282Z,0.00
2018-12-21T01:19:14.252Z,0.00
2018-12-21T01:20:14.223Z,0.00
2018-12-21T01:21:14.189Z,0.00
2018-12-21T01:22:14.160Z,0.00
2018-12-21T01:23:14.129Z,0.00
2018-12-21T01:24:14.101Z,0.00
2018-12-21T01:25:14.070Z,0.00
2018-12-21T01:26:14.037Z,0.00
2018-12-21T01:27:14.007Z,0.00
2018-12-21T01:28:13.977Z,0.00
2018-12-21T01:29:13.949Z,0.00
2018-12-21T01:30:13.916Z,0.00
2018-12-21T01:31:13.884Z,0.00
2018-12-21T01:32:13.856Z,0.00
2018-12-21T01:33:13.827Z,0.00
2018-12-21T01:34:13.839Z,0.00
2018-12-21T01:35:13.763Z,0.00
2018-12-21T01:36:13.730Z,0.00
2018-12-21T01:37:13.700Z,0.00
2018-12-21T01:38:13.671Z,0.00
2018-12-21T01:39:13.639Z,0.00
2018-12-21T01:40:13.609Z,0.00
2018-12-21T01:41:13.579Z,0.00
2018-12-21T01:42:13.574Z,0.00
2018-12-21T01:43:13.518Z,0.00
2018-12-21T01:44:13.488Z,0.00
2018-12-21T01:45:13.456Z,0.00
2018-12-21T01:46:13.426Z,0.00
2018-12-21T01:47:13.395Z,0.00
2018-12-21T01:48:13.364Z,0.00
2018-12-21T01:49:13.334Z,0.00
2018-12-21T01:50:13.304Z,0.00
2018-12-21T01:51:13.273Z,0.00
2018-12-21T01:52:13.242Z,0.00
2018-12-21T01:53:13.211Z,0.00
2018-12-21T01:54:13.180Z,0.00
2018-12-21T01:55:13.159Z,0.00
2018-12-21T01:56:13.120Z,0.00
2018-12-21T01:57:13.090Z,0.00
2018-12-21T01:58:13.063Z,0.00
2018-12-21T01:59:13.027Z,0.00
2018-12-21T02:00:13.000Z,0.00
2018-12-21T02:01:12.966Z,0.00
2018-12-21T02:02:12.937Z,0.00
2018-12-21T02:03:12.918Z,0.00
2018-12-21T02:04:12.875Z,0.00
2018-12-21T02:05:12.901Z,0.00
2018-12-21T02:06:12.815Z,0.00
2018-12-21T02:07:12.782Z,0.00
2018-12-21T02:08:12.753Z,0.00
2018-12-21T02:09:12.723Z,0.00
2018-12-21T02:10:12.697Z,0.00
2018-12-21T02:11:12.664Z,0.00
2018-12-21T02:12:12.629Z,0.00
2018-12-21T02:13:12.599Z,0.00
2018-12-21T02:14:12.569Z,0.00
2018-12-21T02:15:12.538Z,0.00
2018-12-21T02:16:12.508Z,0.00
2018-12-21T02:17:12.477Z,0.00
2018-12-21T02:18:12.453Z,0.00
2018-12-21T02:19:12.415Z,0.00
2018-12-21T02:20:12.391Z,0.00
2018-12-21T02:21:12.356Z,0.00
2018-12-21T02:22:12.325Z,0.00
2018-12-21T02:23:12.291Z,0.00
2018-12-21T02:24:12.262Z,0.00
2018-12-21T02:25:12.233Z,0.00
2018-12-21T02:26:12.280Z,0.00
2018-12-21T02:27:12.172Z,0.00
2018-12-21T02:28:12.137Z,0.00
2018-12-21T02:29:12.109Z,0.00
2018-12-21T02:30:12.078Z,0.00
2018-12-21T02:31:12.048Z,0.00
2018-12-21T02:32:12.022Z,0.00
2018-12-21T02:33:11.998Z,0.00
2018-12-21T02:34:11.961Z,0.00
2018-12-21T02:35:11.924Z,0.00
2018-12-21T02:36:11.896Z,0.00
2018-12-21T02:37:11.860Z,0.00
2018-12-21T02:38:11.832Z,0.00
2018-12-21T02:39:11.800Z,0.00
2018-12-21T02:40:11.768Z,0.00
2018-12-21T02:41:11.738Z,0.00
2018-12-21T02:42:11.706Z,0.00
2018-12-21T02:43:11.679Z,0.00
2018-12-21T02:44:11.643Z,0.00
2018-12-21T02:45:11.613Z,0.00
2018-12-21T02:46:11.584Z,0.00
2018-12-21T02:47:11.554Z,0.00
2018-12-21T02:48:11.522Z,0.00
2018-12-21T02:49:11.491Z,0.00
2018-12-21T02:50:11.459Z,0.00
2018-12-21T02:51:11.428Z,0.00
2018-12-21T02:52:11.397Z,0.00
2018-12-21T02:53:11.366Z,0.00
2018-12-21T02:54:11.337Z,0.00
2018-12-21T02:55:11.312Z,0.00
2018-12-21T02:56:11.274Z,0.00
2018-12-21T02:57:11.254Z,0.00
2018-12-21T02:58:11.212Z,0.00
2018-12-21T02:59:11.181Z,0.00
2018-12-21T03:00:11.149Z,0.00
2018-12-21T03:01:11.118Z,0.00
2018-12-21T03:02:11.091Z,0.00
2018-12-21T03:03:11.056Z,0.00
2018-12-21T03:04:11.031Z,0.00
2018-12-21T03:05:10.997Z,0.00
2018-12-21T03:06:10.964Z,0.00
2018-12-21T03:07:11.786Z,0.00
2018-12-21T03:08:10.901Z,0.00
2018-12-21T03:09:10.874Z,0.00
2018-12-21T03:10:10.839Z,0.00
2018-12-21T03:11:10.812Z,0.00
2018-12-21T03:12:10.782Z,0.00
2018-12-21T03:13:10.746Z,0.00
2018-12-21T03:14:10.723Z,0.00
2018-12-21T03:15:10.683Z,0.00
2018-12-21T03:16:10.653Z,0.00
2018-12-21T03:17:10.624Z,0.00
2018-12-21T03:18:10.591Z,0.00
2018-12-21T03:19:10.559Z,0.00
2018-12-21T03:20:10.530Z,0.00
2018-12-21T03:21:10.497Z,0.00
2018-12-21T03:22:14.657Z,0.00
2018-12-21T03:23:10.437Z,0.00
2018-12-21T03:24:10.409Z,0.00
2018-12-21T03:25:10.375Z,0.00
2018-12-21T03:26:10.342Z,0.00
2018-12-21T03:27:10.315Z,0.00
2018-12-21T03:28:10.286Z,0.00
2018-12-21T03:29:10.255Z,0.00
2018-12-21T03:30:10.226Z,0.00
2018-12-21T03:31:10.191Z,0.00
2018-12-21T03:32:10.159Z,0.00
2018-12-21T03:33:10.128Z,0.00
2018-12-21T03:34:10.101Z,0.00
2018-12-21T03:35:10.066Z,0.00
2018-12-21T03:36:10.066Z,0.00
2018-12-21T03:37:10.002Z,0.00
2018-12-21T03:38:09.977Z,0.00
2018-12-21T03:39:09.939Z,0.00
2018-12-21T03:40:09.911Z,0.00
2018-12-21T03:41:09.880Z,0.00
2018-12-21T03:42:09.846Z,0.00
2018-12-21T03:43:09.817Z,0.00
2018-12-21T03:44:09.784Z,0.00
2018-12-21T03:45:09.754Z,0.00
2018-12-21T03:46:09.725Z,0.00
2018-12-21T03:47:09.691Z,0.00
2018-12-21T03:48:09.664Z,0.00
2018-12-21T03:49:09.633Z,0.00
2018-12-21T03:50:09.605Z,0.00
2018-12-21T03:51:09.569Z,0.00
2018-12-21T03:52:09.542Z,0.00
2018-12-21T03:53:09.506Z,0.00
2018-12-21T03:54:09.481Z,0.00
2018-12-21T03:55:09.448Z,0.00
2018-12-21T03:56:09.413Z,0.00
2018-12-21T03:57:09.383Z,0.00
2018-12-21T03:58:09.351Z,0.00
2018-12-21T03:59:09.320Z,0.00
2018-12-21T04:00:09.289Z,0.00
2018-12-21T04:01:09.260Z,0.00
2018-12-21T04:02:09.228Z,0.00
2018-12-21T04:03:09.196Z,0.00
2018-12-21T04:04:09.165Z,0.00
2018-12-21T04:05:09.135Z,0.00
2018-12-21T04:06:09.103Z,0.00
2018-12-21T04:07:09.073Z,0.00
2018-12-21T04:08:09.041Z,0.00
2018-12-21T04:09:09.061Z,0.00
2018-12-21T04:10:08.978Z,0.00
2018-12-21T04:11:08.950Z,0.00
2018-12-21T04:12:08.915Z,0.00
2018-12-21T04:13:08.888Z,0.00
2018-12-21T04:14:08.857Z,0.00
2018-12-21T04:15:08.823Z,0.00
2018-12-21T04:16:08.794Z,0.00
2018-12-21T04:17:08.763Z,0.00
2018-12-21T04:18:08.734Z,0.00
2018-12-21T04:19:08.699Z,0.00
2018-12-21T04:20:08.667Z,0.00
2018-12-21T04:21:08.636Z,0.00
2018-12-21T04:22:08.612Z,0.00
2018-12-21T04:23:08.625Z,0.00
2018-12-21T04:24:08.544Z,0.00
2018-12-21T04:25:08.512Z,0.00
2018-12-21T04:26:08.482Z,0.00
2018-12-21T04:27:08.450Z,0.00
2018-12-21T04:28:08.418Z,0.00
2018-12-21T04:29:08.387Z,0.00
2018-12-21T04:30:08.363Z,0.00
2018-12-21T04:31:08.329Z,0.00
2018-12-21T04:32:08.300Z,0.00
2018-12-21T04:33:08.263Z,0.00
2018-12-21T04:34:08.253Z,0.00
2018-12-21T04:35:08.202Z,0.00
2018-12-21T04:36:08.172Z,0.00
2018-12-21T04:37:08.139Z,0.00
2018-12-21T04:38:08.110Z,0.00
2018-12-21T04:39:08.079Z,0.00
2018-12-21T04:40:08.047Z,0.00
2018-12-21T04:41:08.015Z,0.00
2018-12-21T04:42:07.983Z,0.00
2018-12-21T04:43:07.952Z,0.00
2018-12-21T04:44:07.923Z,0.00
2018-12-21T04:45:07.890Z,0.00
2018-12-21T04:46:07.858Z,0.00
2018-12-21T04:47:07.829Z,0.00
2018-12-21T04:48:07.796Z,0.00
2018-12-21T04:49:07.768Z,0.00
2018-12-21T04:50:07.732Z,0.00
2018-12-21T04:51:07.705Z,0.00
2018-12-21T04:52:07.670Z,0.00
2018-12-21T04:53:07.638Z,0.00
2018-12-21T04:54:07.615Z,0.00
2018-12-21T04:55:07.576Z,0.00
2018-12-21T04:56:07.546Z,0.00
2018-12-21T04:57:07.514Z,0.00
2018-12-21T04:58:07.484Z,0.00
2018-12-21T04:59:09.548Z,0.00
2018-12-21T05:00:07.430Z,0.00
2018-12-21T05:01:07.389Z,0.00
2018-12-21T05:02:07.359Z,0.00
2018-12-21T05:03:07.326Z,0.00
2018-12-21T05:04:07.296Z,0.00
2018-12-21T05:05:07.266Z,0.00
2018-12-21T05:06:07.237Z,0.00
2018-12-21T05:07:12.334Z,0.00
2018-12-21T05:08:07.169Z,0.00
2018-12-21T05:09:07.138Z,0.00
2018-12-21T05:10:07.109Z,0.00
2018-12-21T05:11:07.079Z,0.00
2018-12-21T05:12:07.046Z,0.00
2018-12-21T05:13:07.014Z,0.00
2018-12-21T05:14:08.074Z,0.00
2018-12-21T05:15:06.954Z,0.00
2018-12-21T05:16:06.923Z,0.00
2018-12-21T05:17:06.891Z,0.00
2018-12-21T05:18:06.861Z,0.00
2018-12-21T05:19:06.828Z,0.00
2018-12-21T05:20:06.796Z,0.00
2018-12-21T05:21:06.765Z,0.00
2018-12-21T05:22:06.736Z,0.00
2018-12-21T05:23:06.719Z,0.00
2018-12-21T05:24:06.671Z,0.00
2018-12-21T05:25:06.641Z,0.00
2018-12-21T05:26:06.609Z,0.00
2018-12-21T05:27:06.578Z,0.00
2018-12-21T05:28:06.546Z,0.00
2018-12-21T05:29:06.516Z,0.00
2018-12-21T05:30:06.486Z,0.00
2018-12-21T05:31:06.454Z,0.00
2018-12-21T05:32:06.426Z,0.00
2018-12-21T05:33:06.392Z,0.00
2018-12-21T05:34:06.360Z,0.00
2018-12-21T05:35:06.330Z,0.00
2018-12-21T05:36:06.298Z,0.00
2018-12-21T05:37:06.373Z,0.00
2018-12-21T05:38:06.236Z,0.00
2018-12-21T05:39:06.203Z,0.00
2018-12-21T05:40:06.174Z,0.00
2018-12-21T05:41:06.153Z,0.00
2018-12-21T05:42:06.113Z,0.00
2018-12-21T05:43:06.083Z,0.00
2018-12-21T05:44:06.049Z,0.00
2018-12-21T05:45:06.019Z,0.00
2018-12-21T05:46:05.988Z,0.00
2018-12-21T05:47:05.964Z,0.00
2018-12-21T05:48:05.933Z,0.00
2018-12-21T05:49:05.894Z,0.00
2018-12-21T05:50:05.862Z,0.00
2018-12-21T05:51:05.835Z,0.00
2018-12-21T05:52:05.808Z,0.00
2018-12-21T05:53:05.768Z,0.00
2018-12-21T05:54:05.738Z,0.00
2018-12-21T05:55:05.710Z,0.00
2018-12-21T05:56:05.677Z,0.00
2018-12-21T05:57:05.650Z,0.00
2018-12-21T05:58:05.614Z,0.00
2018-12-21T05:59:05.582Z,0.00
2018-12-21T06:00:05.551Z,0.00
2018-12-21T06:01:05.522Z,0.00
2018-12-21T06:02:05.609Z,0.00
2018-12-21T06:03:05.459Z,0.00
2018-12-21T06:04:05.428Z,0.00
2018-12-21T06:05:05.397Z,0.00
2018-12-21T06:06:05.370Z,0.00
2018-12-21T06:07:05.335Z,0.00
2018-12-21T06:08:05.301Z,0.00
2018-12-21T06:09:05.272Z,0.00
2018-12-21T06:10:05.241Z,0.00
2018-12-21T06:11:05.209Z,0.00
2018-12-21T06:12:05.183Z,0.00
2018-12-21T06:13:05.147Z,0.00
2018-12-21T06:14:05.115Z,0.00
2018-12-21T06:15:05.084Z,0.00
2018-12-21T06:16:05.054Z,0.00
2018-12-21T06:17:05.022Z,0.00
2018-12-21T06:18:04.991Z,0.00
2018-12-21T06:19:04.964Z,0.00
2018-12-21T06:20:04.928Z,0.00
2018-12-21T06:21:04.897Z,0.00
2018-12-21T06:22:04.871Z,0.00
2018-12-21T06:23:09.384Z,0.00
2018-12-21T06:24:04.817Z,0.00
2018-12-21T06:25:04.778Z,0.00
2018-12-21T06:26:04.750Z,0.00
2018-12-21T06:27:04.712Z,0.00
2018-12-21T06:28:04.684Z,0.00
2018-12-21T06:29:04.652Z,0.00
2018-12-21T06:30:04.625Z,0.00
2018-12-21T06:31:04.586Z,0.00
2018-12-21T06:32:04.556Z,0.00
2018-12-21T06:33:04.526Z,0.00
2018-12-21T06:34:04.496Z,0.00
2018-12-21T06:35:04.463Z,0.00
2018-12-21T06:36:04.437Z,0.00
2018-12-21T06:37:04.401Z,0.00
2018-12-21T06:38:04.391Z,0.00
2018-12-21T06:39:04.339Z,0.00
2018-12-21T06:40:04.308Z,0.00
2018-12-21T06:41:04.281Z,0.00
2018-12-21T06:42:04.264Z,0.00
2018-12-21T06:43:04.221Z,0.00
2018-12-21T06:44:04.183Z,0.00
2018-12-21T06:45:04.153Z,0.00
2018-12-21T06:46:04.201Z,0.00
2018-12-21T06:47:04.094Z,0.00
2018-12-21T06:48:04.059Z,0.00
2018-12-21T06:49:04.029Z,0.00
2018-12-21T06:50:03.999Z,0.00
2018-12-21T06:51:03.967Z,0.00
2018-12-21T06:52:03.936Z,0.00
2018-12-21T06:53:03.904Z,0.00
2018-12-21T06:54:03.874Z,0.00
2018-12-21T06:55:03.849Z,0.00
2018-12-21T06:56:03.812Z,0.00
2018-12-21T06:57:03.781Z,4.00
2018-12-21T06:58:03.749Z,4.00
2018-12-21T06:59:03.722Z,4.00
2018-12-21T07:00:03.692Z,4.00
2018-12-21T07:01:03.664Z,4.00
2018-12-21T07:02:03.629Z,0.00
2018-12-21T07:03:03.601Z,4.00
2018-12-21T07:04:03.563Z,4.00
2018-12-21T07:05:03.533Z,4.00
2018-12-21T07:06:03.502Z,8.00
2018-12-21T07:07:03.471Z,8.00
2018-12-21T07:08:03.440Z,8.00
2018-12-21T07:09:03.408Z,8.00
2018-12-21T07:10:03.382Z,8.00
2018-12-21T07:11:03.348Z,12.00
2018-12-21T07:12:03.321Z,16.00
2018-12-21T07:13:03.286Z,16.00
2018-12-21T07:14:03.255Z,20.00
2018-12-21T07:15:03.223Z,20.00
2018-12-21T07:16:03.191Z,20.00
2018-12-21T07:17:03.165Z,24.00
2018-12-21T07:18:03.131Z,32.00
2018-12-21T07:19:03.101Z,32.00
2018-12-21T07:20:03.067Z,36.00
2018-12-21T07:21:03.037Z,40.00
2018-12-21T07:22:03.011Z,44.00
2018-12-21T07:23:02.974Z,52.00
2018-12-21T07:24:02.944Z,56.00
2018-12-21T07:25:02.914Z,56.00
2018-12-21T07:26:02.886Z,64.00
2018-12-21T07:27:02.852Z,64.00
2018-12-21T07:28:02.826Z,68.00
2018-12-21T07:29:02.797Z,68.00
2018-12-21T07:30:02.777Z,72.00
2018-12-21T07:31:02.727Z,76.00
2018-12-21T07:32:02.698Z,80.00
2018-12-21T07:33:02.667Z,84.00
2018-12-21T07:34:02.637Z,96.00
2018-12-21T07:35:02.606Z,104.00
2018-12-21T07:36:08.365Z,124.00
2018-12-21T07:37:02.545Z,140.00
2018-12-21T07:38:02.512Z,156.00
2018-12-21T07:39:02.479Z,180.00
2018-12-21T07:40:02.454Z,196.00
2018-12-21T07:41:02.470Z,204.00
2018-12-21T07:42:02.390Z,208.00
2018-12-21T07:43:02.360Z,204.00
2018-12-21T07:44:02.332Z,176.00
2018-12-21T07:45:02.296Z,164.00
2018-12-21T07:46:02.266Z,168.00
2018-12-21T07:47:02.233Z,188.00
2018-12-21T07:48:02.203Z,216.00
2018-12-21T07:49:02.177Z,256.00
2018-12-21T07:50:02.143Z,320.00
2018-12-21T07:51:02.111Z,368.00
2018-12-21T07:52:02.085Z,368.00
2018-12-21T07:53:02.049Z,352.00
2018-12-21T07:54:02.018Z,320.00
2018-12-21T07:55:01.991Z,292.00
2018-12-21T07:56:01.967Z,284.00
2018-12-21T07:57:01.926Z,304.00
2018-12-21T07:58:01.904Z,316.00
2018-12-21T07:59:01.864Z,316.00
2018-12-21T08:00:01.926Z,316.00
2018-12-21T08:01:01.801Z,312.00
2018-12-21T08:02:01.772Z,316.00
2018-12-21T08:03:01.740Z,328.00
2018-12-21T08:04:01.728Z,328.00
2018-12-21T08:05:01.679Z,332.00
2018-12-21T08:06:01.651Z,344.00
2018-12-21T08:07:01.617Z,360.00
2018-12-21T08:08:01.586Z,384.00
2018-12-21T08:09:01.556Z,420.00
2018-12-21T08:10:01.525Z,444.00
2018-12-21T08:11:01.492Z,472.00
2018-12-21T08:12:01.467Z,512.00
2018-12-21T08:13:01.442Z,568.00
2018-12-21T08:14:01.402Z,640.00
2018-12-21T08:15:01.373Z,700.00
2018-12-21T08:16:01.343Z,772.00
2018-12-21T08:17:01.310Z,880.00
2018-12-21T08:18:01.279Z,1000.00
2018-12-21T08:19:01.247Z,1128.00
2018-12-21T08:20:01.220Z,1268.00
2018-12-21T08:21:01.190Z,1384.00
2018-12-21T08:22:01.232Z,1448.00
2018-12-21T08:23:01.125Z,1516.00
2018-12-21T08:24:01.096Z,1676.00
2018-12-21T08:25:01.063Z,1832.00
2018-12-21T08:26:01.033Z,1940.00
2018-12-21T08:27:01.001Z,2024.00
2018-12-21T08:28:00.970Z,2060.00
2018-12-21T08:29:00.939Z,2100.00
2018-12-21T08:30:00.909Z,2204.00
2018-12-21T08:31:00.877Z,2288.00
2018-12-21T08:32:00.848Z,2300.00
2018-12-21T08:33:00.817Z,2232.00
2018-12-21T08:34:00.785Z,2140.00
2018-12-21T08:35:00.755Z,2052.00
2018-12-21T08:36:00.724Z,1968.00
2018-12-21T08:37:00.694Z,1984.00
2018-12-21T08:38:00.664Z,2080.00
2018-12-21T08:39:00.644Z,2140.00
2018-12-21T08:40:00.604Z,2236.00
2018-12-21T08:41:00.581Z,2340.00
2018-12-21T08:42:00.542Z,2352.00
2018-12-21T08:43:00.514Z,2296.00
2018-12-21T08:44:00.480Z,2404.00
2018-12-21T08:45:00.499Z,2540.00
2018-12-21T08:46:00.420Z,2684.00
2018-12-21T08:47:00.388Z,2776.00
2018-12-21T08:48:00.360Z,2824.00
2018-12-21T08:49:00.329Z,2876.00
2018-12-21T08:50:00.301Z,2976.00
2018-12-21T08:51:00.266Z,3112.00
2018-12-21T08:52:00.242Z,3236.00
2018-12-21T08:53:00.203Z,3312.00
2018-12-21T08:54:00.174Z,3340.00
2018-12-21T08:55:00.143Z,3352.00
2018-12-21T08:56:00.115Z,3376.00
2018-12-21T08:57:00.083Z,3388.00
2018-12-21T08:58:00.051Z,3432.00
2018-12-21T08:59:00.021Z,3548.00
2018-12-21T09:00:00.003Z,3684.00
2018-12-21T09:00:59.961Z,3772.00
2018-12-21T09:01:59.930Z,3804.00
2018-12-21T09:02:59.899Z,3808.00
2018-12-21T09:03:59.874Z,3820.00
2018-12-21T09:04:59.838Z,3852.00
2018-12-21T09:05:59.807Z,3920.00
2018-12-21T09:06:59.793Z,4008.00
2018-12-21T09:07:59.762Z,4120.00
2018-12-21T09:08:59.718Z,4236.00
2018-12-21T09:09:59.685Z,4348.00
2018-12-21T09:10:59.654Z,4492.00
2018-12-21T09:11:59.627Z,4680.00
2018-12-21T09:12:59.597Z,4944.00
2018-12-21T09:13:59.570Z,5276.00
2018-12-21T09:14:59.534Z,5640.00
2018-12-21T09:15:59.502Z,5888.00
2018-12-21T09:16:59.474Z,5920.00
2018-12-21T09:17:59.446Z,6068.00
2018-12-21T09:18:59.412Z,6124.00
2018-12-21T09:19:59.388Z,6068.00
2018-12-21T09:20:59.354Z,6000.00
2018-12-21T09:21:59.321Z,5964.00
2018-12-21T09:22:59.291Z,6244.00
2018-12-21T09:24:01.179Z,6220.00
2018-12-21T09:24:59.230Z,5832.00
2018-12-21T09:25:59.202Z,6296.00
2018-12-21T09:26:59.170Z,6708.00
2018-12-21T09:27:59.143Z,7200.00
2018-12-21T09:28:59.108Z,7448.00
2018-12-21T09:29:59.078Z,7468.00
2018-12-21T09:30:59.048Z,7700.00
2018-12-21T09:32:04.960Z,6060.00
2018-12-21T09:32:58.988Z,5104.00
2018-12-21T09:33:58.958Z,5348.00
2018-12-21T09:34:58.931Z,5648.00
2018-12-21T09:35:58.897Z,6572.00
2018-12-21T09:36:58.868Z,6964.00
2018-12-21T09:37:58.836Z,7148.00
2018-12-21T09:38:58.809Z,7180.00
2018-12-21T09:39:58.776Z,6948.00
2018-12-21T09:40:58.758Z,6660.00
2018-12-21T09:41:58.719Z,6760.00
2018-12-21T09:42:58.686Z,7160.00
2018-12-21T09:43:58.670Z,7432.00
2018-12-21T09:44:58.624Z,7392.00
2018-12-21T09:45:58.602Z,7340.00
2018-12-21T09:46:58.565Z,7336.00
2018-12-21T09:47:58.534Z,7368.00
2018-12-21T09:48:58.511Z,7464.00
2018-12-21T09:49:58.477Z,7664.00
2018-12-21T09:50:58.444Z,7884.00
2018-12-21T09:51:58.414Z,8000.00
2018-12-21T09:52:58.386Z,8004.00
2018-12-21T09:53:58.355Z,8012.00
2018-12-21T09:54:58.336Z,8168.00
2018-12-21T09:55:58.291Z,8448.00
2018-12-21T09:56:58.262Z,8668.00
2018-12-21T09:57:58.235Z,8504.00
2018-12-21T09:58:58.258Z,7896.00
2018-12-21T09:59:58.174Z,6992.00
2018-12-21T10:00:58.140Z,6100.00
2018-12-21T10:01:58.112Z,5536.00
2018-12-21T10:02:58.080Z,5352.00
2018-12-21T10:03:58.048Z,5404.00
2018-12-21T10:04:58.025Z,5512.00
2018-12-21T10:05:57.989Z,5500.00
2018-12-21T10:06:57.961Z,5332.00
2018-12-21T10:07:57.939Z,5092.00
2018-12-21T10:08:57.898Z,4892.00
2018-12-21T10:09:57.870Z,4784.00
2018-12-21T10:10:57.837Z,4928.00
2018-12-21T10:11:57.807Z,5280.00
2018-12-21T10:12:57.784Z,5492.00
2018-12-21T10:13:57.751Z,5456.00
2018-12-21T10:14:57.715Z,5300.00
2018-12-21T10:15:57.686Z,5000.00
2018-12-21T10:16:57.657Z,4692.00
2018-12-21T10:17:57.628Z,4348.00
2018-12-21T10:18:57.594Z,4104.00
2018-12-21T10:19:57.564Z,3972.00
2018-12-21T10:20:57.535Z,3940.00
2018-12-21T10:21:57.506Z,4088.00
2018-12-21T10:22:57.472Z,4392.00
2018-12-21T10:23:57.446Z,4792.00
2018-12-21T10:24:57.413Z,5128.00
2018-12-21T10:25:57.386Z,5208.00
2018-12-21T10:26:57.352Z,4964.00
2018-12-21T10:27:57.336Z,4536.00
2018-12-21T10:28:57.290Z,4184.00
2018-12-21T10:29:57.260Z,3864.00
2018-12-21T10:30:57.229Z,3696.00
2018-12-21T10:31:57.198Z,3736.00
2018-12-21T10:32:57.167Z,3804.00
2018-12-21T10:33:57.138Z,4040.00
2018-12-21T10:34:57.106Z,4284.00
2018-12-21T10:35:57.079Z,4236.00
2018-12-21T10:36:57.049Z,3936.00
2018-12-21T10:37:57.015Z,3792.00
2018-12-21T10:38:56.987Z,3800.00
2018-12-21T10:39:56.954Z,3516.00
2018-12-21T10:40:56.925Z,3268.00
2018-12-21T10:41:56.895Z,3176.00
2018-12-21T10:42:57.013Z,3056.00
2018-12-21T10:43:56.834Z,2972.00
2018-12-21T10:44:56.803Z,2796.00
2018-12-21T10:45:56.774Z,2676.00
2018-12-21T10:46:56.742Z,2672.00
2018-12-21T10:47:56.715Z,2720.00
2018-12-21T10:48:56.681Z,2840.00
2018-12-21T10:49:56.652Z,2868.00
2018-12-21T10:50:56.620Z,2940.00
2018-12-21T10:51:56.591Z,3228.00
2018-12-21T10:52:56.561Z,3108.00
2018-12-21T10:53:56.530Z,3296.00
2018-12-21T10:54:56.500Z,3344.00
2018-12-21T10:55:56.468Z,3392.00
2018-12-21T10:56:56.440Z,3200.00
2018-12-21T10:57:56.428Z,3176.00
2018-12-21T10:58:56.379Z,3024.00
2018-12-21T10:59:56.350Z,3272.00
2018-12-21T11:00:56.318Z,2988.00
2018-12-21T11:01:56.352Z,2992.00
2018-12-21T11:02:56.260Z,2868.00
2018-12-21T11:03:56.225Z,2888.00
2018-12-21T11:04:56.197Z,2960.00
2018-12-21T11:05:56.170Z,2800.00
2018-12-21T11:06:56.147Z,3240.00
2018-12-21T11:07:56.104Z,3476.00
2018-12-21T11:08:56.074Z,3340.00
2018-12-21T11:09:56.044Z,3056.00
2018-12-21T11:10:56.013Z,2896.00
2018-12-21T11:11:55.981Z,2744.00
2018-12-21T11:12:55.952Z,2700.00
2018-12-21T11:13:55.922Z,2620.00
2018-12-21T11:14:55.890Z,2608.00
2018-12-21T11:15:55.860Z,2336.00
2018-12-21T11:16:55.832Z,2324.00
2018-12-21T11:17:55.802Z,2124.00
2018-12-21T11:18:55.769Z,2000.00
2018-12-21T11:19:55.737Z,1936.00
2018-12-21T11:20:55.707Z,1940.00
2018-12-21T11:21:55.681Z,1928.00
2018-12-21T11:22:55.673Z,1912.00
2018-12-21T11:23:55.616Z,2032.00
2018-12-21T11:24:55.586Z,2148.00
2018-12-21T11:25:55.555Z,2212.00
2018-12-21T11:26:55.530Z,2112.00
2018-12-21T11:27:55.495Z,2100.00
2018-12-21T11:28:55.476Z,2120.00
2018-12-21T11:29:55.529Z,2028.00
2018-12-21T11:30:55.401Z,1824.00
2018-12-21T11:31:55.373Z,1912.00
2018-12-21T11:32:55.348Z,1860.00
2018-12-21T11:33:55.310Z,1812.00
2018-12-21T11:34:55.295Z,1776.00
2018-12-21T11:35:55.250Z,1844.00
2018-12-21T11:36:55.220Z,1716.00
2018-12-21T11:37:55.188Z,1676.00
2018-12-21T11:38:55.157Z,1548.00
2018-12-21T11:39:55.125Z,1608.00
2018-12-21T11:40:55.117Z,1632.00
2018-12-21T11:41:55.151Z,1676.00
2018-12-21T11:42:55.034Z,1732.00
2018-12-21T11:43:55.005Z,1632.00
2018-12-21T11:44:54.978Z,1764.00
2018-12-21T11:45:54.942Z,1868.00
2018-12-21T11:46:54.916Z,1944.00
2018-12-21T11:47:54.881Z,2084.00
2018-12-21T11:48:54.851Z,1852.00
2018-12-21T11:49:54.822Z,2024.00
2018-12-21T11:50:54.789Z,2272.00
2018-12-21T11:51:54.759Z,2452.00
2018-12-21T11:52:54.727Z,2552.00
2018-12-21T11:53:54.700Z,2948.00
2018-12-21T11:54:54.667Z,3172.00
2018-12-21T11:55:54.635Z,3256.00
2018-12-21T11:56:54.616Z,3244.00
2018-12-21T11:57:54.579Z,3272.00
2018-12-21T11:58:54.542Z,3456.00
2018-12-21T11:59:54.512Z,4048.00
2018-12-21T12:00:54.487Z,4104.00
2018-12-21T12:01:54.460Z,4772.00
2018-12-21T12:02:54.421Z,4964.00
2018-12-21T12:03:54.393Z,4676.00
2018-12-21T12:04:54.359Z,3960.00
2018-12-21T12:05:54.331Z,3672.00
2018-12-21T12:06:54.298Z,3232.00
2018-12-21T12:07:54.268Z,2712.00
2018-12-21T12:08:54.238Z,2260.00
2018-12-21T12:09:54.206Z,1944.00
2018-12-21T12:10:54.181Z,2068.00
2018-12-21T12:11:54.165Z,2200.00
2018-12-21T12:12:54.167Z,2512.00
2018-12-21T12:13:54.104Z,2544.00
2018-12-21T12:14:54.105Z,2668.00
2018-12-21T12:15:54.024Z,2780.00
2018-12-21T12:16:53.993Z,2716.00
2018-12-21T12:17:53.961Z,2928.00
2018-12-21T12:18:53.932Z,2876.00
2018-12-21T12:19:53.901Z,2616.00
2018-12-21T12:20:53.872Z,2536.00
2018-12-21T12:21:53.840Z,2964.00
2018-12-21T12:22:53.815Z,2780.00
2018-12-21T12:23:53.787Z,2448.00
2018-12-21T12:24:55.422Z,2420.00
2018-12-21T12:25:53.716Z,2628.00
2018-12-21T12:26:53.690Z,2528.00
2018-12-21T12:27:53.655Z,2444.00
2018-12-21T12:28:53.624Z,2076.00
2018-12-21T12:29:53.597Z,2064.00
2018-12-21T12:30:53.565Z,2008.00
2018-12-21T12:31:53.533Z,1836.00
2018-12-21T12:32:53.503Z,1964.00
2018-12-21T12:33:53.474Z,1968.00
2018-12-21T12:34:53.441Z,2008.00
2018-12-21T12:35:53.417Z,2108.00
2018-12-21T12:36:53.379Z,1876.00
2018-12-21T12:37:53.350Z,2024.00
2018-12-21T12:38:53.319Z,1708.00
2018-12-21T12:39:53.289Z,1776.00
2018-12-21T12:40:53.260Z,1860.00
2018-12-21T12:41:53.227Z,2056.00
2018-12-21T12:42:53.198Z,1948.00
2018-12-21T12:43:53.167Z,2064.00
2018-12-21T12:44:53.135Z,2028.00
2018-12-21T12:45:53.107Z,2468.00
2018-12-21T12:46:53.166Z,2148.00